sensor_id;sensor_type;location;lat;lon;timestamp;P1;durP1;ratioP1;P2;durP2;ratioP2
78891;SDS011;68368;51.728;5.248;2023-06-14T00:01:01;5.60;;;3.30;;
78891;SDS011;68368;51.728;5.248;2023-06-14T00:03:06;6.40;;;2.80;;
78891;SDS011;68368;51.728;5.248;2023-06-14T00:05:08;6.30;;;3.20;;
78891;SDS011;68368;51.728;5.248;2023-06-14T00:07:10;4.20;;;2.90;;
78891;SDS011;68368;51.728;5.248;2023-06-14T00:09:13;5.80;;;3.30;;
78891;SDS011;68368;51.728;5.248;2023-06-14T00:11:16;6.20;;;2.90;;
78891;SDS011;68368;51.728;5.248;2023-06-14T00:13:18;5.90;;;3.20;;
78891;SDS011;68368;51.728;5.248;2023-06-14T00:15:20;7.30;;;3.40;;
78891;SDS011;68368;51.728;5.248;2023-06-14T00:17:22;4.50;;;2.60;;
78891;SDS011;68368;51.728;5.248;2023-06-14T00:19:24;6.00;;;3.20;;
78891;SDS011;68368;51.728;5.248;2023-06-14T00:21:28;5.30;;;3.00;;
78891;SDS011;68368;51.728;5.248;2023-06-14T00:23:30;4.80;;;2.70;;
78891;SDS011;68368;51.728;5.248;2023-06-14T00:25:32;7.40;;;3.40;;
78891;SDS011;68368;51.728;5.248;2023-06-14T00:27:34;6.50;;;3.00;;
78891;SDS011;68368;51.728;5.248;2023-06-14T00:29:36;9.00;;;4.20;;
78891;SDS011;68368;51.728;5.248;2023-06-14T00:31:38;19.10;;;5.30;;
78891;SDS011;68368;51.728;5.248;2023-06-14T00:33:40;15.10;;;5.00;;
78891;SDS011;68368;51.728;5.248;2023-06-14T00:35:41;12.40;;;4.90;;
78891;SDS011;68368;51.728;5.248;2023-06-14T00:37:44;9.50;;;4.10;;
78891;SDS011;68368;51.728;5.248;2023-06-14T00:39:46;5.70;;;3.50;;
78891;SDS011;68368;51.728;5.248;2023-06-14T00:41:47;6.60;;;3.80;;
78891;SDS011;68368;51.728;5.248;2023-06-14T00:43:50;5.50;;;3.30;;
78891;SDS011;68368;51.728;5.248;2023-06-14T00:45:52;6.70;;;3.30;;
78891;SDS011;68368;51.728;5.248;2023-06-14T00:47:54;6.70;;;3.40;;
78891;SDS011;68368;51.728;5.248;2023-06-14T00:49:56;5.30;;;2.70;;
78891;SDS011;68368;51.728;5.248;2023-06-14T00:52:02;6.00;;;3.10;;
78891;SDS011;68368;51.728;5.248;2023-06-14T00:54:05;6.00;;;3.20;;
78891;SDS011;68368;51.728;5.248;2023-06-14T00:56:06;5.20;;;3.20;;
78891;SDS011;68368;51.728;5.248;2023-06-14T00:58:09;7.20;;;3.20;;
78891;SDS011;68368;51.728;5.248;2023-06-14T01:00:12;5.80;;;3.50;;
78891;SDS011;68368;51.728;5.248;2023-06-14T01:02:15;6.00;;;3.00;;
78891;SDS011;68368;51.728;5.248;2023-06-14T01:04:18;7.50;;;3.60;;
78891;SDS011;68368;51.728;5.248;2023-06-14T01:06:23;6.40;;;3.10;;
78891;SDS011;68368;51.728;5.248;2023-06-14T01:08:34;7.10;;;3.80;;
78891;SDS011;68368;51.728;5.248;2023-06-14T01:12:50;7.60;;;3.40;;
78891;SDS011;68368;51.728;5.248;2023-06-14T01:15:00;6.10;;;3.30;;
78891;SDS011;68368;51.728;5.248;2023-06-14T01:17:06;5.00;;;3.20;;
78891;SDS011;68368;51.728;5.248;2023-06-14T01:19:09;6.60;;;3.30;;
78891;SDS011;68368;51.728;5.248;2023-06-14T01:21:20;7.80;;;3.10;;
78891;SDS011;68368;51.728;5.248;2023-06-14T01:23:22;11.90;;;3.60;;
78891;SDS011;68368;51.728;5.248;2023-06-14T01:25:24;5.10;;;3.20;;
78891;SDS011;68368;51.728;5.248;2023-06-14T01:27:29;5.80;;;3.40;;
78891;SDS011;68368;51.728;5.248;2023-06-14T01:29:31;8.00;;;3.30;;
78891;SDS011;68368;51.728;5.248;2023-06-14T01:31:34;5.10;;;3.20;;
78891;SDS011;68368;51.728;5.248;2023-06-14T01:33:36;5.60;;;3.20;;
78891;SDS011;68368;51.728;5.248;2023-06-14T01:35:38;5.70;;;3.30;;
78891;SDS011;68368;51.728;5.248;2023-06-14T01:37:41;6.30;;;3.20;;
78891;SDS011;68368;51.728;5.248;2023-06-14T01:39:45;8.50;;;3.70;;
78891;SDS011;68368;51.728;5.248;2023-06-14T01:41:47;5.90;;;3.30;;
78891;SDS011;68368;51.728;5.248;2023-06-14T01:43:51;6.80;;;3.70;;
78891;SDS011;68368;51.728;5.248;2023-06-14T01:45:55;8.80;;;3.90;;
78891;SDS011;68368;51.728;5.248;2023-06-14T01:47:59;8.00;;;3.20;;
78891;SDS011;68368;51.728;5.248;2023-06-14T01:50:02;6.50;;;4.00;;
78891;SDS011;68368;51.728;5.248;2023-06-14T01:52:06;6.50;;;3.00;;
78891;SDS011;68368;51.728;5.248;2023-06-14T01:54:08;5.90;;;3.10;;
78891;SDS011;68368;51.728;5.248;2023-06-14T01:56:10;6.10;;;3.20;;
78891;SDS011;68368;51.728;5.248;2023-06-14T01:58:12;6.70;;;3.00;;
78891;SDS011;68368;51.728;5.248;2023-06-14T02:00:15;5.40;;;2.90;;
78891;SDS011;68368;51.728;5.248;2023-06-14T02:02:18;6.30;;;3.30;;
78891;SDS011;68368;51.728;5.248;2023-06-14T02:04:21;8.40;;;3.20;;
78891;SDS011;68368;51.728;5.248;2023-06-14T02:06:23;7.80;;;3.40;;
78891;SDS011;68368;51.728;5.248;2023-06-14T02:08:28;6.90;;;3.30;;
78891;SDS011;68368;51.728;5.248;2023-06-14T02:10:30;6.80;;;3.00;;
78891;SDS011;68368;51.728;5.248;2023-06-14T02:12:34;6.20;;;2.90;;
78891;SDS011;68368;51.728;5.248;2023-06-14T02:14:36;5.40;;;3.10;;
78891;SDS011;68368;51.728;5.248;2023-06-14T02:16:43;5.00;;;3.10;;
78891;SDS011;68368;51.728;5.248;2023-06-14T02:18:47;8.80;;;3.00;;
78891;SDS011;68368;51.728;5.248;2023-06-14T02:20:52;8.00;;;3.40;;
78891;SDS011;68368;51.728;5.248;2023-06-14T02:22:55;6.70;;;3.10;;
78891;SDS011;68368;51.728;5.248;2023-06-14T02:24:58;6.00;;;3.50;;
78891;SDS011;68368;51.728;5.248;2023-06-14T02:27:00;7.90;;;3.20;;
78891;SDS011;68368;51.728;5.248;2023-06-14T02:29:02;6.00;;;3.30;;
78891;SDS011;68368;51.728;5.248;2023-06-14T02:31:04;8.60;;;3.10;;
78891;SDS011;68368;51.728;5.248;2023-06-14T02:33:06;6.20;;;3.00;;
78891;SDS011;68368;51.728;5.248;2023-06-14T02:35:08;9.00;;;3.20;;
78891;SDS011;68368;51.728;5.248;2023-06-14T02:37:11;7.20;;;3.40;;
78891;SDS011;68368;51.728;5.248;2023-06-14T02:39:13;7.40;;;3.30;;
78891;SDS011;68368;51.728;5.248;2023-06-14T02:41:15;5.70;;;3.50;;
78891;SDS011;68368;51.728;5.248;2023-06-14T02:43:17;6.70;;;3.30;;
78891;SDS011;68368;51.728;5.248;2023-06-14T02:45:19;5.90;;;3.40;;
78891;SDS011;68368;51.728;5.248;2023-06-14T02:47:21;10.60;;;3.40;;
78891;SDS011;68368;51.728;5.248;2023-06-14T02:49:23;8.00;;;3.20;;
78891;SDS011;68368;51.728;5.248;2023-06-14T02:51:25;6.50;;;3.00;;
78891;SDS011;68368;51.728;5.248;2023-06-14T02:53:27;6.10;;;3.30;;
78891;SDS011;68368;51.728;5.248;2023-06-14T02:55:29;5.80;;;3.50;;
78891;SDS011;68368;51.728;5.248;2023-06-14T02:57:30;6.10;;;3.40;;
78891;SDS011;68368;51.728;5.248;2023-06-14T02:59:32;5.80;;;3.10;;
78891;SDS011;68368;51.728;5.248;2023-06-14T03:01:37;5.90;;;3.00;;
78891;SDS011;68368;51.728;5.248;2023-06-14T03:03:39;7.10;;;3.00;;
78891;SDS011;68368;51.728;5.248;2023-06-14T03:05:42;4.30;;;3.40;;
78891;SDS011;68368;51.728;5.248;2023-06-14T03:07:45;6.90;;;3.00;;
78891;SDS011;68368;51.728;5.248;2023-06-14T03:09:48;5.50;;;3.00;;
78891;SDS011;68368;51.728;5.248;2023-06-14T03:11:50;7.10;;;3.40;;
78891;SDS011;68368;51.728;5.248;2023-06-14T03:13:52;6.20;;;3.40;;
78891;SDS011;68368;51.728;5.248;2023-06-14T03:15:55;4.60;;;3.10;;
78891;SDS011;68368;51.728;5.248;2023-06-14T03:17:57;8.90;;;3.20;;
78891;SDS011;68368;51.728;5.248;2023-06-14T03:19:59;6.00;;;3.30;;
78891;SDS011;68368;51.728;5.248;2023-06-14T03:22:02;7.10;;;3.20;;
78891;SDS011;68368;51.728;5.248;2023-06-14T03:24:05;8.90;;;3.30;;
78891;SDS011;68368;51.728;5.248;2023-06-14T03:26:07;4.20;;;3.10;;
78891;SDS011;68368;51.728;5.248;2023-06-14T03:28:09;6.20;;;3.40;;
78891;SDS011;68368;51.728;5.248;2023-06-14T03:30:11;5.30;;;3.20;;
78891;SDS011;68368;51.728;5.248;2023-06-14T03:32:14;5.50;;;3.00;;
78891;SDS011;68368;51.728;5.248;2023-06-14T03:34:16;7.20;;;3.20;;
78891;SDS011;68368;51.728;5.248;2023-06-14T03:36:18;6.10;;;3.20;;
78891;SDS011;68368;51.728;5.248;2023-06-14T03:38:19;4.50;;;2.90;;
78891;SDS011;68368;51.728;5.248;2023-06-14T03:40:21;6.80;;;2.90;;
78891;SDS011;68368;51.728;5.248;2023-06-14T03:42:24;5.20;;;3.00;;
78891;SDS011;68368;51.728;5.248;2023-06-14T03:44:29;4.70;;;3.10;;
78891;SDS011;68368;51.728;5.248;2023-06-14T03:46:30;8.60;;;3.30;;
78891;SDS011;68368;51.728;5.248;2023-06-14T03:48:33;7.20;;;3.50;;
78891;SDS011;68368;51.728;5.248;2023-06-14T03:50:34;7.40;;;3.60;;
78891;SDS011;68368;51.728;5.248;2023-06-14T03:52:36;5.70;;;3.10;;
78891;SDS011;68368;51.728;5.248;2023-06-14T03:54:38;6.30;;;3.10;;
78891;SDS011;68368;51.728;5.248;2023-06-14T03:56:40;9.20;;;3.20;;
78891;SDS011;68368;51.728;5.248;2023-06-14T03:58:42;6.90;;;3.10;;
78891;SDS011;68368;51.728;5.248;2023-06-14T04:00:44;5.70;;;3.10;;
78891;SDS011;68368;51.728;5.248;2023-06-14T04:02:46;4.40;;;3.00;;
78891;SDS011;68368;51.728;5.248;2023-06-14T04:04:48;8.00;;;2.80;;
78891;SDS011;68368;51.728;5.248;2023-06-14T04:06:50;6.90;;;3.00;;
78891;SDS011;68368;51.728;5.248;2023-06-14T04:08:52;6.60;;;3.30;;
78891;SDS011;68368;51.728;5.248;2023-06-14T04:10:54;5.50;;;3.10;;
78891;SDS011;68368;51.728;5.248;2023-06-14T04:12:56;6.00;;;2.90;;
78891;SDS011;68368;51.728;5.248;2023-06-14T04:14:58;5.90;;;3.20;;
78891;SDS011;68368;51.728;5.248;2023-06-14T04:17:00;5.70;;;2.90;;
78891;SDS011;68368;51.728;5.248;2023-06-14T04:19:02;5.80;;;2.70;;
78891;SDS011;68368;51.728;5.248;2023-06-14T04:21:04;7.20;;;3.20;;
78891;SDS011;68368;51.728;5.248;2023-06-14T04:23:12;7.20;;;3.00;;
78891;SDS011;68368;51.728;5.248;2023-06-14T04:25:15;7.50;;;3.10;;
78891;SDS011;68368;51.728;5.248;2023-06-14T04:27:16;8.50;;;3.00;;
78891;SDS011;68368;51.728;5.248;2023-06-14T04:29:18;3.80;;;2.50;;
78891;SDS011;68368;51.728;5.248;2023-06-14T04:31:20;6.40;;;3.10;;
78891;SDS011;68368;51.728;5.248;2023-06-14T04:33:22;5.60;;;2.60;;
78891;SDS011;68368;51.728;5.248;2023-06-14T04:35:24;5.40;;;2.50;;
78891;SDS011;68368;51.728;5.248;2023-06-14T04:37:26;5.40;;;2.90;;
78891;SDS011;68368;51.728;5.248;2023-06-14T04:39:28;6.20;;;3.40;;
78891;SDS011;68368;51.728;5.248;2023-06-14T04:41:30;7.20;;;2.80;;
78891;SDS011;68368;51.728;5.248;2023-06-14T04:43:32;4.60;;;3.00;;
78891;SDS011;68368;51.728;5.248;2023-06-14T04:45:34;5.60;;;2.90;;
78891;SDS011;68368;51.728;5.248;2023-06-14T04:47:36;4.20;;;2.80;;
78891;SDS011;68368;51.728;5.248;2023-06-14T04:49:38;5.80;;;2.80;;
78891;SDS011;68368;51.728;5.248;2023-06-14T04:51:42;4.00;;;2.70;;
78891;SDS011;68368;51.728;5.248;2023-06-14T04:53:46;6.00;;;2.70;;
78891;SDS011;68368;51.728;5.248;2023-06-14T04:55:48;4.40;;;2.70;;
78891;SDS011;68368;51.728;5.248;2023-06-14T04:57:50;4.70;;;2.80;;
78891;SDS011;68368;51.728;5.248;2023-06-14T04:59:52;4.70;;;2.90;;
78891;SDS011;68368;51.728;5.248;2023-06-14T05:01:53;5.90;;;3.10;;
78891;SDS011;68368;51.728;5.248;2023-06-14T05:03:55;4.70;;;2.60;;
78891;SDS011;68368;51.728;5.248;2023-06-14T05:05:58;5.20;;;2.90;;
78891;SDS011;68368;51.728;5.248;2023-06-14T05:07:59;5.30;;;3.00;;
78891;SDS011;68368;51.728;5.248;2023-06-14T05:10:01;6.90;;;2.60;;
78891;SDS011;68368;51.728;5.248;2023-06-14T05:12:04;7.30;;;2.80;;
78891;SDS011;68368;51.728;5.248;2023-06-14T05:14:08;8.20;;;3.00;;
78891;SDS011;68368;51.728;5.248;2023-06-14T05:16:10;4.60;;;2.70;;
78891;SDS011;68368;51.728;5.248;2023-06-14T05:18:11;6.80;;;2.80;;
78891;SDS011;68368;51.728;5.248;2023-06-14T05:20:16;5.50;;;2.70;;
78891;SDS011;68368;51.728;5.248;2023-06-14T05:22:17;3.90;;;2.90;;
78891;SDS011;68368;51.728;5.248;2023-06-14T05:24:19;6.80;;;2.90;;
78891;SDS011;68368;51.728;5.248;2023-06-14T05:26:21;6.20;;;2.80;;
78891;SDS011;68368;51.728;5.248;2023-06-14T05:28:23;6.00;;;3.30;;
78891;SDS011;68368;51.728;5.248;2023-06-14T05:30:25;8.00;;;2.90;;
78891;SDS011;68368;51.728;5.248;2023-06-14T05:32:27;4.20;;;2.80;;
78891;SDS011;68368;51.728;5.248;2023-06-14T05:34:29;4.30;;;2.70;;
78891;SDS011;68368;51.728;5.248;2023-06-14T05:36:33;6.20;;;2.80;;
78891;SDS011;68368;51.728;5.248;2023-06-14T05:38:35;5.20;;;3.10;;
78891;SDS011;68368;51.728;5.248;2023-06-14T05:40:37;6.30;;;2.80;;
78891;SDS011;68368;51.728;5.248;2023-06-14T05:42:39;4.00;;;2.70;;
78891;SDS011;68368;51.728;5.248;2023-06-14T05:44:41;5.30;;;2.70;;
78891;SDS011;68368;51.728;5.248;2023-06-14T05:46:43;5.70;;;2.70;;
78891;SDS011;68368;51.728;5.248;2023-06-14T05:48:45;5.30;;;2.70;;
78891;SDS011;68368;51.728;5.248;2023-06-14T05:50:47;4.40;;;2.80;;
78891;SDS011;68368;51.728;5.248;2023-06-14T05:52:49;5.20;;;2.80;;
78891;SDS011;68368;51.728;5.248;2023-06-14T05:54:51;6.40;;;3.10;;
78891;SDS011;68368;51.728;5.248;2023-06-14T05:56:53;4.70;;;3.40;;
78891;SDS011;68368;51.728;5.248;2023-06-14T05:58:55;5.60;;;3.30;;
78891;SDS011;68368;51.728;5.248;2023-06-14T06:00:57;9.80;;;3.50;;
78891;SDS011;68368;51.728;5.248;2023-06-14T06:03:00;5.10;;;2.80;;
78891;SDS011;68368;51.728;5.248;2023-06-14T06:05:02;5.70;;;3.00;;
78891;SDS011;68368;51.728;5.248;2023-06-14T06:07:05;4.60;;;3.30;;
78891;SDS011;68368;51.728;5.248;2023-06-14T06:09:08;6.30;;;3.20;;
78891;SDS011;68368;51.728;5.248;2023-06-14T06:11:10;4.50;;;3.30;;
78891;SDS011;68368;51.728;5.248;2023-06-14T06:13:12;6.30;;;3.00;;
78891;SDS011;68368;51.728;5.248;2023-06-14T06:15:14;7.20;;;3.30;;
78891;SDS011;68368;51.728;5.248;2023-06-14T06:17:16;7.30;;;2.90;;
78891;SDS011;68368;51.728;5.248;2023-06-14T06:19:19;6.50;;;3.40;;
78891;SDS011;68368;51.728;5.248;2023-06-14T06:21:23;6.00;;;3.20;;
78891;SDS011;68368;51.728;5.248;2023-06-14T06:23:26;4.60;;;3.00;;
78891;SDS011;68368;51.728;5.248;2023-06-14T06:25:28;6.30;;;2.90;;
78891;SDS011;68368;51.728;5.248;2023-06-14T06:27:30;4.70;;;3.10;;
78891;SDS011;68368;51.728;5.248;2023-06-14T06:29:32;5.40;;;3.10;;
78891;SDS011;68368;51.728;5.248;2023-06-14T06:31:34;5.90;;;3.80;;
78891;SDS011;68368;51.728;5.248;2023-06-14T06:33:37;6.60;;;3.20;;
78891;SDS011;68368;51.728;5.248;2023-06-14T06:35:39;7.90;;;3.20;;
78891;SDS011;68368;51.728;5.248;2023-06-14T06:37:44;4.70;;;3.30;;
78891;SDS011;68368;51.728;5.248;2023-06-14T06:39:46;7.10;;;3.00;;
78891;SDS011;68368;51.728;5.248;2023-06-14T06:41:48;4.20;;;2.70;;
78891;SDS011;68368;51.728;5.248;2023-06-14T06:43:50;6.40;;;3.20;;
78891;SDS011;68368;51.728;5.248;2023-06-14T06:45:52;4.90;;;3.60;;
78891;SDS011;68368;51.728;5.248;2023-06-14T06:47:54;6.00;;;3.30;;
78891;SDS011;68368;51.728;5.248;2023-06-14T06:49:56;5.30;;;3.10;;
78891;SDS011;68368;51.728;5.248;2023-06-14T06:52:02;6.40;;;3.10;;
78891;SDS011;68368;51.728;5.248;2023-06-14T06:54:05;5.90;;;3.10;;
78891;SDS011;68368;51.728;5.248;2023-06-14T06:56:07;5.60;;;2.80;;
78891;SDS011;68368;51.728;5.248;2023-06-14T06:58:11;6.40;;;2.80;;
78891;SDS011;68368;51.728;5.248;2023-06-14T07:00:15;7.00;;;3.30;;
78891;SDS011;68368;51.728;5.248;2023-06-14T07:02:18;4.70;;;2.80;;
78891;SDS011;68368;51.728;5.248;2023-06-14T07:04:20;5.00;;;2.90;;
78891;SDS011;68368;51.728;5.248;2023-06-14T07:06:21;4.90;;;3.10;;
78891;SDS011;68368;51.728;5.248;2023-06-14T07:08:23;4.90;;;3.40;;
78891;SDS011;68368;51.728;5.248;2023-06-14T07:10:26;6.30;;;3.00;;
78891;SDS011;68368;51.728;5.248;2023-06-14T07:12:27;5.20;;;2.70;;
78891;SDS011;68368;51.728;5.248;2023-06-14T07:14:30;5.20;;;3.00;;
78891;SDS011;68368;51.728;5.248;2023-06-14T07:16:32;7.30;;;2.90;;
78891;SDS011;68368;51.728;5.248;2023-06-14T07:18:34;4.60;;;2.80;;
78891;SDS011;68368;51.728;5.248;2023-06-14T07:20:36;8.10;;;3.00;;
78891;SDS011;68368;51.728;5.248;2023-06-14T07:22:38;5.30;;;3.00;;
78891;SDS011;68368;51.728;5.248;2023-06-14T07:24:40;6.40;;;2.90;;
78891;SDS011;68368;51.728;5.248;2023-06-14T07:26:42;3.50;;;2.60;;
78891;SDS011;68368;51.728;5.248;2023-06-14T07:28:44;4.80;;;3.00;;
78891;SDS011;68368;51.728;5.248;2023-06-14T07:30:48;5.90;;;2.80;;
78891;SDS011;68368;51.728;5.248;2023-06-14T07:32:50;5.80;;;3.20;;
78891;SDS011;68368;51.728;5.248;2023-06-14T07:34:54;4.70;;;2.80;;
78891;SDS011;68368;51.728;5.248;2023-06-14T07:36:56;5.50;;;2.90;;
78891;SDS011;68368;51.728;5.248;2023-06-14T07:38:58;4.30;;;3.10;;
78891;SDS011;68368;51.728;5.248;2023-06-14T07:41:00;6.40;;;3.20;;
78891;SDS011;68368;51.728;5.248;2023-06-14T07:43:04;9.60;;;3.20;;
78891;SDS011;68368;51.728;5.248;2023-06-14T07:45:09;5.90;;;2.80;;
78891;SDS011;68368;51.728;5.248;2023-06-14T07:47:12;3.60;;;2.50;;
78891;SDS011;68368;51.728;5.248;2023-06-14T07:49:16;5.40;;;2.30;;
78891;SDS011;68368;51.728;5.248;2023-06-14T07:51:20;3.90;;;2.40;;
78891;SDS011;68368;51.728;5.248;2023-06-14T07:53:22;4.40;;;3.00;;
78891;SDS011;68368;51.728;5.248;2023-06-14T07:55:24;5.60;;;2.80;;
78891;SDS011;68368;51.728;5.248;2023-06-14T07:57:26;5.10;;;2.60;;
78891;SDS011;68368;51.728;5.248;2023-06-14T07:59:28;11.00;;;2.40;;
78891;SDS011;68368;51.728;5.248;2023-06-14T08:01:30;4.70;;;2.60;;
78891;SDS011;68368;51.728;5.248;2023-06-14T08:03:33;5.10;;;2.50;;
78891;SDS011;68368;51.728;5.248;2023-06-14T08:05:35;6.30;;;2.60;;
78891;SDS011;68368;51.728;5.248;2023-06-14T08:07:37;4.20;;;2.40;;
78891;SDS011;68368;51.728;5.248;2023-06-14T08:09:40;4.80;;;2.50;;
78891;SDS011;68368;51.728;5.248;2023-06-14T08:11:41;4.00;;;2.40;;
78891;SDS011;68368;51.728;5.248;2023-06-14T08:13:46;3.50;;;2.30;;
78891;SDS011;68368;51.728;5.248;2023-06-14T08:15:48;5.90;;;2.60;;
78891;SDS011;68368;51.728;5.248;2023-06-14T08:17:50;6.20;;;2.60;;
78891;SDS011;68368;51.728;5.248;2023-06-14T08:19:52;6.90;;;2.40;;
78891;SDS011;68368;51.728;5.248;2023-06-14T08:21:54;4.60;;;2.20;;
78891;SDS011;68368;51.728;5.248;2023-06-14T08:23:57;5.70;;;2.40;;
78891;SDS011;68368;51.728;5.248;2023-06-14T08:26:00;3.10;;;2.20;;
78891;SDS011;68368;51.728;5.248;2023-06-14T08:28:02;4.80;;;2.40;;
78891;SDS011;68368;51.728;5.248;2023-06-14T08:30:06;6.30;;;2.30;;
78891;SDS011;68368;51.728;5.248;2023-06-14T08:32:09;5.70;;;2.40;;
78891;SDS011;68368;51.728;5.248;2023-06-14T08:34:11;5.20;;;2.40;;
78891;SDS011;68368;51.728;5.248;2023-06-14T08:36:13;3.50;;;2.30;;
78891;SDS011;68368;51.728;5.248;2023-06-14T08:38:15;3.10;;;2.00;;
78891;SDS011;68368;51.728;5.248;2023-06-14T08:40:20;4.40;;;2.60;;
78891;SDS011;68368;51.728;5.248;2023-06-14T08:42:24;5.60;;;2.10;;
78891;SDS011;68368;51.728;5.248;2023-06-14T08:44:26;4.30;;;2.40;;
78891;SDS011;68368;51.728;5.248;2023-06-14T08:46:28;6.40;;;2.00;;
78891;SDS011;68368;51.728;5.248;2023-06-14T08:48:33;4.90;;;2.10;;
78891;SDS011;68368;51.728;5.248;2023-06-14T08:50:36;5.50;;;2.50;;
78891;SDS011;68368;51.728;5.248;2023-06-14T08:52:41;2.70;;;1.90;;
78891;SDS011;68368;51.728;5.248;2023-06-14T08:54:49;3.40;;;2.30;;
78891;SDS011;68368;51.728;5.248;2023-06-14T08:56:50;3.80;;;1.80;;
78891;SDS011;68368;51.728;5.248;2023-06-14T08:58:53;5.40;;;2.00;;
78891;SDS011;68368;51.728;5.248;2023-06-14T09:00:56;7.40;;;2.40;;
78891;SDS011;68368;51.728;5.248;2023-06-14T09:02:59;3.90;;;2.00;;
78891;SDS011;68368;51.728;5.248;2023-06-14T09:05:02;4.10;;;2.20;;
78891;SDS011;68368;51.728;5.248;2023-06-14T09:07:05;3.60;;;2.20;;
78891;SDS011;68368;51.728;5.248;2023-06-14T09:09:07;4.70;;;2.00;;
78891;SDS011;68368;51.728;5.248;2023-06-14T09:11:14;7.30;;;2.40;;
78891;SDS011;68368;51.728;5.248;2023-06-14T09:13:17;3.50;;;2.00;;
78891;SDS011;68368;51.728;5.248;2023-06-14T09:15:20;6.50;;;1.80;;
78891;SDS011;68368;51.728;5.248;2023-06-14T09:17:23;5.80;;;1.90;;
78891;SDS011;68368;51.728;5.248;2023-06-14T09:19:25;4.30;;;1.40;;
78891;SDS011;68368;51.728;5.248;2023-06-14T09:21:33;3.40;;;1.80;;
78891;SDS011;68368;51.728;5.248;2023-06-14T09:23:36;3.30;;;1.80;;
78891;SDS011;68368;51.728;5.248;2023-06-14T09:25:43;4.10;;;1.70;;
78891;SDS011;68368;51.728;5.248;2023-06-14T09:27:47;3.80;;;1.40;;
78891;SDS011;68368;51.728;5.248;2023-06-14T09:29:49;4.60;;;1.90;;
78891;SDS011;68368;51.728;5.248;2023-06-14T09:31:51;2.20;;;1.60;;
78891;SDS011;68368;51.728;5.248;2023-06-14T09:33:54;3.00;;;1.70;;
78891;SDS011;68368;51.728;5.248;2023-06-14T09:35:55;3.00;;;1.80;;
78891;SDS011;68368;51.728;5.248;2023-06-14T09:37:57;3.10;;;1.30;;
78891;SDS011;68368;51.728;5.248;2023-06-14T09:39:59;1.80;;;1.20;;
78891;SDS011;68368;51.728;5.248;2023-06-14T09:42:02;1.90;;;1.20;;
78891;SDS011;68368;51.728;5.248;2023-06-14T09:44:19;2.70;;;1.30;;
78891;SDS011;68368;51.728;5.248;2023-06-14T09:46:22;4.60;;;1.30;;
78891;SDS011;68368;51.728;5.248;2023-06-14T09:48:24;2.40;;;1.20;;
78891;SDS011;68368;51.728;5.248;2023-06-14T09:50:26;5.50;;;1.60;;
78891;SDS011;68368;51.728;5.248;2023-06-14T09:52:29;1.70;;;1.10;;
78891;SDS011;68368;51.728;5.248;2023-06-14T09:54:32;1.60;;;1.10;;
78891;SDS011;68368;51.728;5.248;2023-06-14T09:56:41;3.10;;;1.10;;
78891;SDS011;68368;51.728;5.248;2023-06-14T09:58:47;2.30;;;1.20;;
78891;SDS011;68368;51.728;5.248;2023-06-14T10:00:54;1.90;;;1.20;;
78891;SDS011;68368;51.728;5.248;2023-06-14T10:03:00;2.50;;;1.10;;
78891;SDS011;68368;51.728;5.248;2023-06-14T10:05:07;3.10;;;1.20;;
78891;SDS011;68368;51.728;5.248;2023-06-14T10:07:18;3.90;;;1.10;;
78891;SDS011;68368;51.728;5.248;2023-06-14T10:09:21;2.40;;;1.20;;
78891;SDS011;68368;51.728;5.248;2023-06-14T10:11:26;5.20;;;1.20;;
78891;SDS011;68368;51.728;5.248;2023-06-14T10:13:28;4.20;;;1.30;;
78891;SDS011;68368;51.728;5.248;2023-06-14T10:15:37;2.00;;;1.30;;
78891;SDS011;68368;51.728;5.248;2023-06-14T10:17:46;2.60;;;1.20;;
78891;SDS011;68368;51.728;5.248;2023-06-14T10:19:53;2.40;;;1.10;;
78891;SDS011;68368;51.728;5.248;2023-06-14T10:22:00;1.90;;;1.20;;
78891;SDS011;68368;51.728;5.248;2023-06-14T10:24:10;2.60;;;1.40;;
78891;SDS011;68368;51.728;5.248;2023-06-14T10:26:20;4.90;;;1.50;;
78891;SDS011;68368;51.728;5.248;2023-06-14T10:28:24;3.20;;;1.30;;
78891;SDS011;68368;51.728;5.248;2023-06-14T10:30:26;3.50;;;1.30;;
78891;SDS011;68368;51.728;5.248;2023-06-14T10:32:29;2.80;;;1.20;;
78891;SDS011;68368;51.728;5.248;2023-06-14T10:34:32;2.50;;;1.20;;
78891;SDS011;68368;51.728;5.248;2023-06-14T10:36:34;3.20;;;1.30;;
78891;SDS011;68368;51.728;5.248;2023-06-14T10:38:37;4.40;;;1.60;;
78891;SDS011;68368;51.728;5.248;2023-06-14T10:40:39;3.20;;;1.30;;
78891;SDS011;68368;51.728;5.248;2023-06-14T10:42:41;4.00;;;1.40;;
78891;SDS011;68368;51.728;5.248;2023-06-14T10:44:52;3.20;;;1.50;;
78891;SDS011;68368;51.728;5.248;2023-06-14T10:46:55;3.60;;;1.60;;
78891;SDS011;68368;51.728;5.248;2023-06-14T10:48:59;2.50;;;1.50;;
78891;SDS011;68368;51.728;5.248;2023-06-14T10:51:01;4.30;;;1.40;;
78891;SDS011;68368;51.728;5.248;2023-06-14T10:53:03;2.80;;;1.40;;
78891;SDS011;68368;51.728;5.248;2023-06-14T10:55:23;2.20;;;1.60;;
78891;SDS011;68368;51.728;5.248;2023-06-14T10:57:25;3.60;;;1.30;;
78891;SDS011;68368;51.728;5.248;2023-06-14T10:59:27;4.10;;;1.60;;
78891;SDS011;68368;51.728;5.248;2023-06-14T11:01:38;2.80;;;1.30;;
78891;SDS011;68368;51.728;5.248;2023-06-14T11:03:52;3.60;;;1.30;;
78891;SDS011;68368;51.728;5.248;2023-06-14T11:05:54;3.60;;;1.40;;
78891;SDS011;68368;51.728;5.248;2023-06-14T11:08:18;4.40;;;1.60;;
78891;SDS011;68368;51.728;5.248;2023-06-14T11:10:40;3.20;;;1.50;;
78891;SDS011;68368;51.728;5.248;2023-06-14T11:12:43;3.50;;;1.30;;
78891;SDS011;68368;51.728;5.248;2023-06-14T11:14:50;3.80;;;1.30;;
78891;SDS011;68368;51.728;5.248;2023-06-14T11:16:52;4.30;;;1.20;;
78891;SDS011;68368;51.728;5.248;2023-06-14T11:18:54;2.70;;;1.20;;
78891;SDS011;68368;51.728;5.248;2023-06-14T11:20:56;2.70;;;1.20;;
78891;SDS011;68368;51.728;5.248;2023-06-14T11:22:59;1.80;;;1.00;;
78891;SDS011;68368;51.728;5.248;2023-06-14T11:25:01;3.40;;;1.30;;
78891;SDS011;68368;51.728;5.248;2023-06-14T11:27:04;2.60;;;1.40;;
78891;SDS011;68368;51.728;5.248;2023-06-14T11:29:07;2.90;;;1.30;;
78891;SDS011;68368;51.728;5.248;2023-06-14T11:31:13;3.20;;;1.30;;
78891;SDS011;68368;51.728;5.248;2023-06-14T11:33:17;2.90;;;1.30;;
78891;SDS011;68368;51.728;5.248;2023-06-14T11:35:22;3.30;;;1.30;;
78891;SDS011;68368;51.728;5.248;2023-06-14T11:37:24;3.40;;;1.40;;
78891;SDS011;68368;51.728;5.248;2023-06-14T11:39:28;2.30;;;1.30;;
78891;SDS011;68368;51.728;5.248;2023-06-14T11:41:33;2.00;;;1.10;;
78891;SDS011;68368;51.728;5.248;2023-06-14T11:43:37;2.20;;;1.30;;
78891;SDS011;68368;51.728;5.248;2023-06-14T11:45:40;2.80;;;1.40;;
78891;SDS011;68368;51.728;5.248;2023-06-14T11:47:42;3.60;;;1.30;;
78891;SDS011;68368;51.728;5.248;2023-06-14T11:49:44;3.80;;;1.10;;
78891;SDS011;68368;51.728;5.248;2023-06-14T11:51:47;2.30;;;1.60;;
78891;SDS011;68368;51.728;5.248;2023-06-14T11:53:49;4.40;;;1.40;;
78891;SDS011;68368;51.728;5.248;2023-06-14T11:55:52;1.80;;;1.40;;
78891;SDS011;68368;51.728;5.248;2023-06-14T11:57:56;2.00;;;1.30;;
78891;SDS011;68368;51.728;5.248;2023-06-14T11:59:58;5.40;;;1.60;;
78891;SDS011;68368;51.728;5.248;2023-06-14T12:02:02;3.30;;;1.40;;
78891;SDS011;68368;51.728;5.248;2023-06-14T12:04:04;4.00;;;1.30;;
78891;SDS011;68368;51.728;5.248;2023-06-14T12:06:07;2.60;;;1.20;;
78891;SDS011;68368;51.728;5.248;2023-06-14T12:08:09;4.50;;;1.70;;
78891;SDS011;68368;51.728;5.248;2023-06-14T12:10:11;3.40;;;1.30;;
78891;SDS011;68368;51.728;5.248;2023-06-14T12:12:14;3.80;;;1.30;;
78891;SDS011;68368;51.728;5.248;2023-06-14T12:14:16;3.00;;;1.50;;
78891;SDS011;68368;51.728;5.248;2023-06-14T12:16:18;2.70;;;1.30;;
78891;SDS011;68368;51.728;5.248;2023-06-14T12:18:23;3.10;;;1.40;;
78891;SDS011;68368;51.728;5.248;2023-06-14T12:20:33;3.80;;;1.50;;
78891;SDS011;68368;51.728;5.248;2023-06-14T12:22:35;3.60;;;1.50;;
78891;SDS011;68368;51.728;5.248;2023-06-14T12:24:37;3.80;;;1.50;;